ADDS METAR Data INFO
IDs: Format: Raw Decoded Include TAF

Data at: 1716 UTC 23 Oct 2017

KGON 231656Z 13009KT 10SM FEW035 21/17 A3027 RMK AO2 SLP251 T02060167
KGON 231556Z 12009KT 10SM SCT008 20/17 A3030 RMK AO2 SLP261 T02000167
KGON 231456Z 10008KT 10SM BKN007 BKN040 18/16 A3032 RMK AO2 SLP268 T01830161 58008
KGON 231356Z 10007KT 4SM BR BKN009 17/16 A3034 RMK AO2 CIG 005V012 SLP272 T01720161
KGON 231340Z 09005KT 2 1/2SM BR SCT004 OVC009 17/17 A3035 RMK AO2 T01670167 $
KGON 231256Z 02004KT 2 1/2SM BR OVC002 16/15 A3035 RMK AO2 SLP276 T01560150 $
KGON 231247Z 05005KT 2 1/2SM R05/2800VP6000FT BR OVC002 16/15 A3035 RMK AO2 T01560150 $
KGON 231239Z 04004KT 1/2SM R05/1800V3000FT FG VV002 15/14 A3035 RMK AO2 T01500144 $
KGON 231156Z 02004KT M1/4SM R05/0800V1000FT FG VV002 13/13 A3035 RMK AO2 SLP276 T01330133 10133 20094 51001 $
KGON 231056Z 36004KT 1/4SM R05/1400V1600FT FG VV002 11/11 A3035 RMK AO2 SLP276 T01110106 $
KGON 231047Z AUTO 02004KT 1/4SM R05/1600V5000FT FG VV002 12/11 A3035 RMK AO2 T01220111 $
KGON 231043Z AUTO 02004KT 3/4SM R05/1600VP6000FT BR BKN001 BKN010 12/11 A3035 RMK AO2 T01170111 $
KGON 231040Z AUTO 02004KT 2SM R05/2400VP6000FT BR BKN001 BKN010 11/11 A3035 RMK AO2 T01110106 $
KGON 231036Z AUTO 02004KT 8SM SCT001 BKN008 11/11 A3035 RMK AO2 T01110106 $
KGON 230956Z AUTO 01003KT 10SM FEW010 11/10 A3035 RMK AO2 SLP275 T01110100 $
KGON 230856Z AUTO 35004KT 5SM BR SCT008 10/09 A3034 RMK AO2 SLP275 T01000089 58013 $
KGON 230812Z AUTO 00000KT 7SM FEW009 09/09 A3035 RMK AO2 T00940089 $
KGON 230803Z AUTO 01003KT 8SM SCT011 10/09 A3035 RMK AO2 T01000094 $
KGON 230756Z AUTO 03003KT 2 1/2SM BR FEW002 FEW011 11/10 A3036 RMK AO2 VIS 1 1/2V5 SLP279 T01060100 $
KGON 230744Z AUTO 00000KT 3/4SM R05/P6000FT BR VV002 10/09 A3036 RMK AO2 T01000094 $
KGON 230739Z AUTO 00000KT 1 1/4SM R05/5000VP6000FT BR FEW002 11/10 A3036 RMK AO2 T01060100 $
KGON 230726Z AUTO 34003KT 3/4SM R05/P6000FT BR VV002 11/10 A3036 RMK AO2 T01060100 $
KGON 230723Z AUTO 00000KT 1 1/2SM R05/4000VP6000FT BR BKN001 11/10 A3036 RMK AO2 T01060100 $
KGON 230720Z AUTO 00000KT 5SM R05/3500VP6000FT BR BKN001 11/10 A3036 RMK AO2 T01060100 $
KGON 230712Z AUTO 00000KT 2SM R05/3500VP6000FT BR OVC001 11/10 A3037 RMK AO2 T01060100 $
KGON 230709Z AUTO 02003KT 3/4SM R05/4000VP6000FT BR VV001 11/10 A3037 RMK AO2 T01060100 $
KGON 230656Z AUTO 36003KT 1/4SM R05/2800V3500FT FG VV001 10/10 A3038 RMK AO2 SLP285 T01000100 $
KGON 230639Z AUTO 34003KT 1/4SM R05/2000VP6000FT FG VV001 10/10 A3038 RMK AO2 T01000100 $
KGON 230630Z AUTO 00000KT 3/4SM R05/P6000FT BR VV001 11/09 A3038 RMK AO2 T01060094 $
KGON 230624Z AUTO 00000KT 8SM BKN001 11/10 A3038 RMK AO2 T01060100 $
KGON 230610Z AUTO 00000KT 6SM BR FEW001 10/09 A3038 RMK AO2 T01000094 $
KGON 230556Z AUTO 33003KT 2 1/2SM BR FEW004 11/10 A3038 RMK AO2 SLP288 T01110100 10161 20106 58004 $
KGON 230531Z AUTO 00000KT 8SM FEW005 11/10 A3038 RMK AO2 T01110100 $
KGON 230456Z AUTO 00000KT 10SM CLR 12/11 A3039 RMK AO2 SLP291 T01170106 402220078 $
KGON 230431Z AUTO 00000KT 7SM FEW002 12/11 A3039 RMK AO2 T01170111 $
KGON 230424Z AUTO 00000KT 5SM BR BKN002 12/11 A3040 RMK AO2 T01170106 $
KGON 230409Z AUTO 00000KT 8SM BKN001 11/10 A3039 RMK AO2 T01110100 $
KGON 230356Z AUTO 01003KT 10SM FEW001 12/11 A3040 RMK AO2 SLP293 T01170111 $
KGON 230256Z AUTO 00000KT 8SM CLR 11/10 A3040 RMK AO2 SLP293 T01110100 50005 $
KGON 230156Z 00000KT 6SM BR CLR 12/12 A3040 RMK AO2 SLP295 T01220117 $
KGON 230056Z 22005KT 10SM CLR 16/13 A3039 RMK AO2 SLP290 T01560133 $
KGON 222356Z 00000KT 10SM CLR 14/13 A3038 RMK AO2 SLP288 T01440128 10217 20139 53002 $
KGON 222256Z 00000KT 10SM CLR 15/13 A3038 RMK AO2 SLP286 T01500133 $
KGON 222156Z 00000KT 10SM CLR 18/16 A3038 RMK AO2 SLP287 T01830156 $
KGON 222056Z 20003KT 10SM CLR 20/15 A3038 RMK AO2 SLP285 T02000150 55000
KGON 221956Z 20004KT 10SM CLR 21/15 A3037 RMK AO2 SLP284 T02060150
KGON 221856Z 18007KT 10SM CLR 21/13 A3037 RMK AO2 SLP284 T02060128
KGON 221756Z 21007KT 10SM CLR 22/13 A3038 RMK AO2 SLP285 T02170128 10222 20100 57012
KGON 221656Z 20007KT 10SM CLR 21/14 A3039 RMK AO2 SLP290 T02060144
KGON 221556Z 20005KT 10SM CLR 19/13 A3040 RMK AO2 SLP293 T01940128
KGON 221456Z 20004KT 10SM CLR 18/12 A3041 RMK AO2 SLP297 T01830122 50004
KGON 221356Z 00000KT 10SM CLR 17/12 A3042 RMK AO2 SLP300 T01720117
KGON 221256Z 03003KT 10SM CLR 13/10 A3041 RMK AO2 SLP299 T01330100
KGON 221156Z 00000KT 10SM CLR 10/08 A3040 RMK AO2 SLP293 T01000083 10100 20078 53015
KGON 221056Z 01003KT 10SM CLR 09/08 A3038 RMK AO2 SLP287 T00890078
KGON 220956Z AUTO 33004KT 10SM CLR 08/07 A3037 RMK AO2 SLP284 T00830072
KGON 220856Z AUTO 01004KT 10SM CLR 09/08 A3035 RMK AO2 SLP278 T00940083 53002
KGON 220756Z AUTO 00000KT 10SM CLR 09/08 A3035 RMK AO2 SLP277 T00890078
KGON 220656Z AUTO 00000KT 10SM CLR 09/08 A3034 RMK AO2 SLP273 T00890083
KGON 220556Z AUTO 36003KT 10SM CLR 09/08 A3035 RMK AO2 SLP276 T00890083 10167 20089 53001